CheckWX is a tool to help pilots better visualize weather data.  It is not intended as a substitute for an official pre-flight weather briefing.

14:53:54 UTC

VVDN TAF
Da Nang International Airport
Da Nang, Vietnam
TAF VVDN 231100Z 2312/2412 12006KT 7000 SCT013 BKN060 TEMPO 2314/2318 4000 RA TEMPO 2318/2324 2800 RA BR

Mar-23@
12:00 UTC

Mar-23 @ 12:00 UTC

Mar-24@
12:00 UTC

Mar-24 @ 12:00 UTC

TAF VVDN 231100Z 2312/2412 12006KT 7000 SCT013 BKN060
Wind
  • 120° at 6 KTS
Cloud Levels
  • Scattered at 1,300' AGL
  • Broken at 6,000' AGL

Mar-23@
14:00 UTC

Mar-23 @ 14:00 UTC

Mar-23@
18:00 UTC

Mar-23 @ 18:00 UTC

TEMPO 2314/2318 4000 RA

Temporary

Temporary Changes expected for less than half the time period

Conditions
Rain

Mar-23@
18:00 UTC

Mar-23 @ 18:00 UTC

Mar-24@
00:00 UTC

Mar-24 @ 00:00 UTC

TEMPO 2318/2324 2800 RA BR

Temporary

Temporary Changes expected for less than half the time period

Conditions
Rain, Mist